createdAt,value
2022-09-05T00:01:37.069Z,11.20
2022-09-05T00:04:24.295Z,11.20
2022-09-05T00:07:47.701Z,11.30
2022-09-05T00:10:21.641Z,11.40
2022-09-05T00:12:55.443Z,11.40
2022-09-05T00:15:49.574Z,11.40
2022-09-05T00:20:40.775Z,11.40
2022-09-05T00:24:31.031Z,11.40
2022-09-05T00:25:08.656Z,11.30
2022-09-05T00:28:02.142Z,11.40
2022-09-05T00:31:54.898Z,11.40
2022-09-05T00:33:59.037Z,11.30
2022-09-05T00:36:37.651Z,11.30
2022-09-05T00:39:11.642Z,11.30
2022-09-05T00:41:39.287Z,11.30
2022-09-05T00:44:07.123Z,11.20
2022-09-05T00:46:47.652Z,11.30
2022-09-05T00:49:43.356Z,11.30
2022-09-05T00:52:34.827Z,11.30
2022-09-05T00:55:39.008Z,11.20
2022-09-05T00:58:33.970Z,11.30
2022-09-05T01:01:10.683Z,11.30
2022-09-05T01:03:57.202Z,11.20
2022-09-05T01:06:33.746Z,11.20
2022-09-05T01:09:17.765Z,11.20
2022-09-05T01:12:04.747Z,11.20
2022-09-05T01:14:48.570Z,11.20
2022-09-05T01:17:35.579Z,11.20
2022-09-05T01:20:40.945Z,11.20
2022-09-05T01:23:37.726Z,11.10
2022-09-05T01:26:37.301Z,11.10
2022-09-05T01:29:19.695Z,11.10
2022-09-05T01:32:15.579Z,11.10
2022-09-05T01:35:02.990Z,11.10
2022-09-05T01:37:44.357Z,11.10
2022-09-05T01:40:32.634Z,11.10
2022-09-05T01:43:14.336Z,11.10
2022-09-05T01:45:51.079Z,11.10
2022-09-05T01:48:48.186Z,11.10
2022-09-05T01:51:32.305Z,11.10
2022-09-05T01:54:29.898Z,11.10
2022-09-05T01:57:08.204Z,11.00
2022-09-05T01:59:50.189Z,11.00
2022-09-05T02:02:17.156Z,11.10
2022-09-05T02:05:02.526Z,11.00
2022-09-05T02:07:38.055Z,10.90
2022-09-05T02:10:22.029Z,10.90
2022-09-05T02:13:05.606Z,10.90
2022-09-05T02:15:59.795Z,10.90
2022-09-05T02:18:45.734Z,10.90
2022-09-05T02:21:55.683Z,10.90
2022-09-05T02:24:33.306Z,10.90
2022-09-05T02:27:45.853Z,11.00
2022-09-05T02:30:16.803Z,11.00
2022-09-05T02:32:49.841Z,11.00
2022-09-05T02:35:38.573Z,10.90
2022-09-05T02:42:21.117Z,10.90
2022-09-05T02:45:10.273Z,10.90
2022-09-05T02:45:18.939Z,10.90
2022-09-05T02:47:22.740Z,10.90
2022-09-05T02:52:39.414Z,10.90
2022-09-05T02:57:29.248Z,10.90
2022-09-05T02:57:35.241Z,10.90
2022-09-05T02:59:36.318Z,10.90
2022-09-05T03:02:25.486Z,10.90
2022-09-05T03:05:08.525Z,10.80
2022-09-05T03:08:08.235Z,10.80
2022-09-05T03:11:08.586Z,10.80
2022-09-05T03:13:38.171Z,10.80
2022-09-05T03:16:17.062Z,10.80
2022-09-05T03:19:04.152Z,10.80
2022-09-05T03:21:43.329Z,10.90
2022-09-05T03:24:22.089Z,10.90
2022-09-05T03:27:29.248Z,10.90
2022-09-05T03:30:25.018Z,10.90
2022-09-05T03:33:13.468Z,10.90
2022-09-05T03:36:18.960Z,11.00
2022-09-05T03:38:59.005Z,11.10
2022-09-05T03:41:54.262Z,11.10
2022-09-05T03:44:38.758Z,11.10
2022-09-05T03:47:08.485Z,11.20
2022-09-05T03:53:45.275Z,11.30
2022-09-05T03:57:22.794Z,11.30
2022-09-05T03:57:27.546Z,11.30
2022-09-05T03:59:12.057Z,11.30
2022-09-05T04:04:54.896Z,11.20
2022-09-05T04:08:24.611Z,11.20
2022-09-05T04:08:32.311Z,11.20
2022-09-05T04:11:08.904Z,11.30
2022-09-05T04:14:05.319Z,11.20
2022-09-05T04:16:54.186Z,11.10
2022-09-05T04:19:31.573Z,11.30
2022-09-05T04:22:13.561Z,11.40
2022-09-05T04:25:03.542Z,11.40
2022-09-05T04:28:04.116Z,11.40
2022-09-05T04:30:47.090Z,11.50
2022-09-05T04:33:36.328Z,11.50
2022-09-05T04:36:18.980Z,11.50
2022-09-05T04:38:46.642Z,11.60
2022-09-05T04:41:39.366Z,11.80
2022-09-05T04:44:16.252Z,12.00
2022-09-05T04:46:48.684Z,12.00
2022-09-05T04:49:20.479Z,11.90
2022-09-05T04:52:00.064Z,12.00
2022-09-05T04:54:48.730Z,12.10
2022-09-05T04:57:39.791Z,12.10
2022-09-05T05:06:03.837Z,12.10
2022-09-05T05:06:18.514Z,12.20
2022-09-05T05:06:43.990Z,12.20
2022-09-05T05:09:30.872Z,12.00
2022-09-05T05:17:57.452Z,11.90
2022-09-05T05:17:59.346Z,12.00
2022-09-05T05:18:52.428Z,11.90
2022-09-05T05:20:52.009Z,11.90
2022-09-05T05:23:29.420Z,11.80
2022-09-05T05:26:00.316Z,11.70
2022-09-05T05:28:42.613Z,11.80
2022-09-05T05:31:33.363Z,11.80
2022-09-05T05:34:24.513Z,11.70
2022-09-05T05:37:18.550Z,11.80
2022-09-05T05:39:50.262Z,11.90
2022-09-05T05:42:24.666Z,11.90
2022-09-05T05:45:01.042Z,11.90
2022-09-05T05:47:35.298Z,12.00
2022-09-05T05:50:34.444Z,12.10
2022-09-05T05:53:13.155Z,12.20
2022-09-05T05:55:58.886Z,12.20
2022-09-05T05:58:50.186Z,12.20
2022-09-05T06:01:37.077Z,12.30
2022-09-05T06:04:51.458Z,12.40
2022-09-05T06:09:18.440Z,12.40
2022-09-05T06:14:56.532Z,12.40
2022-09-05T06:14:57.997Z,12.40
2022-09-05T06:17:09.219Z,12.40
2022-09-05T06:20:49.068Z,12.40
2022-09-05T06:23:38.623Z,12.40
2022-09-05T06:26:49.437Z,12.40
2022-09-05T06:29:35.198Z,12.40
2022-09-05T06:32:58.134Z,12.60
2022-09-05T06:35:49.337Z,12.80
2022-09-05T06:38:31.310Z,12.90
2022-09-05T06:41:15.334Z,13.10
2022-09-05T06:43:47.981Z,13.10
2022-09-05T06:47:22.027Z,13.40
2022-09-05T06:49:41.790Z,13.50
2022-09-05T06:52:43.043Z,13.40
2022-09-05T06:55:43.636Z,13.60
2022-09-05T06:58:13.284Z,13.80
2022-09-05T07:00:51.720Z,14.00
2022-09-05T07:03:40.177Z,14.10
2022-09-05T07:06:09.364Z,14.10
2022-09-05T07:08:57.932Z,14.20
2022-09-05T07:11:49.630Z,14.40
2022-09-05T07:14:26.966Z,14.30
2022-09-05T07:16:59.356Z,14.40
2022-09-05T07:20:04.333Z,14.20
2022-09-05T07:22:50.035Z,14.00
2022-09-05T07:25:37.272Z,14.40
2022-09-05T07:28:29.571Z,14.40
2022-09-05T07:31:14.285Z,14.40
2022-09-05T07:34:20.428Z,14.30
2022-09-05T07:36:51.154Z,14.60
2022-09-05T07:39:43.882Z,14.40
2022-09-05T07:42:19.074Z,14.70
2022-09-05T07:44:56.788Z,14.50
2022-09-05T07:47:32.098Z,14.10
2022-09-05T07:50:54.597Z,14.00
2022-09-05T07:56:56.944Z,14.10
2022-09-05T07:56:59.385Z,14.20
2022-09-05T07:58:53.219Z,14.30
2022-09-05T08:01:22.597Z,14.30
2022-09-05T08:03:56.038Z,14.50
2022-09-05T08:07:14.302Z,14.50
2022-09-05T08:10:06.661Z,14.40
2022-09-05T08:12:16.247Z,14.40
2022-09-05T08:15:01.795Z,14.50
2022-09-05T08:17:33.193Z,14.80
2022-09-05T08:20:31.643Z,14.50
2022-09-05T08:23:05.800Z,14.80
2022-09-05T08:25:56.562Z,14.40
2022-09-05T08:28:39.000Z,15.00
2022-09-05T08:31:19.554Z,15.00
2022-09-05T08:33:48.760Z,15.00
2022-09-05T08:36:38.319Z,15.40
2022-09-05T08:39:07.791Z,15.00
2022-09-05T08:42:00.918Z,15.30
2022-09-05T08:46:42.972Z,15.10
2022-09-05T08:48:02.437Z,14.70
2022-09-05T08:50:42.972Z,14.40
2022-09-05T08:53:57.368Z,14.30
2022-09-05T08:56:40.329Z,14.30
2022-09-05T08:59:32.431Z,14.20
2022-09-05T09:02:47.908Z,14.00
2022-09-05T09:05:25.112Z,14.00
2022-09-05T09:08:17.486Z,14.40
2022-09-05T09:10:59.466Z,14.40
2022-09-05T09:13:52.434Z,14.40
2022-09-05T09:16:40.651Z,14.40
2022-09-05T09:19:16.651Z,14.40
2022-09-05T09:22:20.713Z,14.30
2022-09-05T09:25:14.180Z,14.30
2022-09-05T09:28:48.309Z,14.90
2022-09-05T09:31:04.666Z,14.80
2022-09-05T09:33:44.663Z,15.00
2022-09-05T09:36:25.543Z,15.10
2022-09-05T09:39:38.470Z,15.40
2022-09-05T09:42:33.511Z,15.40
2022-09-05T09:45:29.177Z,15.40
2022-09-05T09:48:28.414Z,15.40
2022-09-05T09:51:22.915Z,15.70
2022-09-05T09:53:52.535Z,15.40
2022-09-05T09:57:05.564Z,15.00
2022-09-05T09:59:41.684Z,15.10
2022-09-05T10:05:01.318Z,15.00
2022-09-05T10:10:47.947Z,14.90
2022-09-05T10:10:50.462Z,14.70
2022-09-05T10:13:08.836Z,14.70
2022-09-05T10:16:00.980Z,15.00
2022-09-05T10:18:41.075Z,15.10
2022-09-05T10:21:45.528Z,14.90
2022-09-05T10:24:43.583Z,14.70
2022-09-05T10:27:27.836Z,14.80
2022-09-05T10:30:33.462Z,14.80
2022-09-05T10:35:21.008Z,14.80
2022-09-05T10:36:37.074Z,15.00
2022-09-05T10:39:03.964Z,15.00
2022-09-05T10:41:51.056Z,15.10
2022-09-05T10:44:40.605Z,14.90
2022-09-05T10:47:19.474Z,15.00
2022-09-05T10:49:50.901Z,15.10
2022-09-05T10:52:33.987Z,15.30
2022-09-05T10:55:22.001Z,15.30
2022-09-05T10:57:57.723Z,15.20
2022-09-05T11:02:29.554Z,15.40
2022-09-05T11:04:13.945Z,14.90
2022-09-05T11:06:42.723Z,15.10
2022-09-05T11:09:16.607Z,15.10
2022-09-05T11:11:46.935Z,14.70
2022-09-05T11:14:34.878Z,14.80
2022-09-05T11:17:12.825Z,15.00
2022-09-05T11:19:48.037Z,15.10
2022-09-05T11:22:23.853Z,14.90
2022-09-05T11:25:02.338Z,14.90
2022-09-05T11:27:43.696Z,15.10
2022-09-05T11:30:28.399Z,15.10
2022-09-05T11:39:48.206Z,15.10
2022-09-05T11:39:51.199Z,15.10
2022-09-05T11:40:04.815Z,15.10
2022-09-05T11:42:28.599Z,15.20
2022-09-05T11:45:06.540Z,15.30
2022-09-05T11:48:06.955Z,15.20
2022-09-05T11:50:56.157Z,15.10
2022-09-05T11:53:57.378Z,14.80
2022-09-05T11:56:45.467Z,14.80
2022-09-05T11:59:37.142Z,14.90
2022-09-05T12:02:45.416Z,15.00
2022-09-05T12:05:49.884Z,15.00
2022-09-05T12:08:29.987Z,15.00
2022-09-05T12:11:13.526Z,14.80
2022-09-05T12:13:58.357Z,14.90
2022-09-05T12:16:42.103Z,15.00
2022-09-05T12:19:22.914Z,15.00
2022-09-05T12:22:23.726Z,15.10
2022-09-05T12:25:24.394Z,15.00
2022-09-05T12:28:15.266Z,15.00
2022-09-05T12:31:08.466Z,14.90
2022-09-05T12:36:04.239Z,14.90
2022-09-05T12:40:51.955Z,14.90
2022-09-05T12:41:32.914Z,15.20
2022-09-05T12:43:39.347Z,15.10
2022-09-05T12:45:45.169Z,15.00
2022-09-05T12:48:39.323Z,15.20
2022-09-05T12:51:11.611Z,15.20
2022-09-05T12:54:03.402Z,15.10
2022-09-05T13:00:21.504Z,15.10
2022-09-05T13:03:03.545Z,15.20
2022-09-05T13:03:06.459Z,15.40
2022-09-05T13:05:37.123Z,15.60
2022-09-05T13:08:04.165Z,15.70
2022-09-05T13:13:48.581Z,15.70
2022-09-05T13:14:55.029Z,15.50
2022-09-05T13:16:28.839Z,15.70
2022-09-05T13:19:10.383Z,15.50
2022-09-05T13:21:50.408Z,15.20
2022-09-05T13:24:30.701Z,14.90
2022-09-05T13:27:08.719Z,14.70
2022-09-05T13:31:13.721Z,14.70
2022-09-05T13:37:58.390Z,15.00
2022-09-05T13:38:03.850Z,14.80
2022-09-05T13:38:48.166Z,14.90
2022-09-05T13:41:28.446Z,15.00
2022-09-05T13:44:25.717Z,14.90
2022-09-05T13:46:57.878Z,15.00
2022-09-05T13:49:37.288Z,14.70
2022-09-05T13:52:26.208Z,14.90
2022-09-05T13:55:19.414Z,15.00
2022-09-05T13:57:49.029Z,14.90
2022-09-05T14:00:35.074Z,14.80
2022-09-05T14:03:37.411Z,14.80
2022-09-05T14:06:47.680Z,14.70
2022-09-05T14:09:49.135Z,14.70
2022-09-05T14:12:36.978Z,14.70
2022-09-05T14:15:26.074Z,14.60
2022-09-05T14:18:22.140Z,14.70
2022-09-05T14:21:17.110Z,15.00
2022-09-05T14:23:54.003Z,15.10
2022-09-05T14:26:28.008Z,14.90
2022-09-05T14:29:14.342Z,14.90
2022-09-05T14:35:47.030Z,15.10
2022-09-05T14:37:40.124Z,15.00
2022-09-05T14:38:14.877Z,14.90
2022-09-05T14:41:03.630Z,14.90
2022-09-05T14:43:48.482Z,15.00
2022-09-05T14:46:35.187Z,15.00
2022-09-05T14:49:23.230Z,15.10
2022-09-05T14:51:53.420Z,15.30
2022-09-05T15:02:39.689Z,15.60
2022-09-05T15:02:48.387Z,15.60
2022-09-05T15:03:03.926Z,15.50
2022-09-05T15:05:32.078Z,15.50
2022-09-05T15:10:19.002Z,14.90
2022-09-05T15:12:16.423Z,15.00
2022-09-05T15:14:06.900Z,15.20
2022-09-05T15:16:38.693Z,15.10
2022-09-05T15:19:09.862Z,15.10
2022-09-05T15:21:41.350Z,15.20
2022-09-05T15:24:17.474Z,15.10
2022-09-05T15:26:59.871Z,14.90
2022-09-05T15:29:35.284Z,14.70
2022-09-05T15:32:21.846Z,14.50
2022-09-05T15:34:50.779Z,14.40
2022-09-05T15:37:36.819Z,14.40
2022-09-05T15:40:24.605Z,14.60
2022-09-05T15:43:02.151Z,14.80
2022-09-05T15:45:35.377Z,15.00
2022-09-05T15:48:14.835Z,15.40
2022-09-05T15:50:51.257Z,15.80
2022-09-05T15:53:34.144Z,15.70
2022-09-05T15:56:21.481Z,15.30
2022-09-05T15:58:56.509Z,14.90
2022-09-05T16:01:59.224Z,14.50
2022-09-05T16:07:16.679Z,14.20
2022-09-05T16:10:39.109Z,14.10
2022-09-05T16:10:39.232Z,14.10
2022-09-05T16:12:57.634Z,14.10
2022-09-05T16:18:51.419Z,14.10
2022-09-05T16:23:15.453Z,14.10
2022-09-05T16:23:37.705Z,14.10
2022-09-05T16:24:05.705Z,14.20
2022-09-05T16:26:54.189Z,14.20
2022-09-05T16:29:26.782Z,14.20
2022-09-05T16:32:07.627Z,14.20
2022-09-05T16:34:37.547Z,14.20
2022-09-05T16:37:10.352Z,14.20
2022-09-05T16:39:45.121Z,14.10
2022-09-05T16:42:37.450Z,14.10
2022-09-05T16:45:35.025Z,14.10
2022-09-05T16:48:23.765Z,14.20
2022-09-05T16:51:35.450Z,14.20
2022-09-05T16:54:31.756Z,14.00
2022-09-05T16:57:22.946Z,14.00
2022-09-05T16:59:50.968Z,13.80
2022-09-05T17:02:39.136Z,13.80
2022-09-05T17:05:36.765Z,13.80
2022-09-05T17:08:16.467Z,13.70
2022-09-05T17:10:57.598Z,13.70
2022-09-05T17:13:45.516Z,13.70
2022-09-05T17:16:44.453Z,13.80
2022-09-05T17:19:22.276Z,13.80
2022-09-05T17:29:17.525Z,13.70
2022-09-05T17:29:34.478Z,13.70
2022-09-05T17:29:47.409Z,13.60
2022-09-05T17:31:55.044Z,13.60
2022-09-05T17:34:52.406Z,13.70
2022-09-05T17:38:11.422Z,13.80
2022-09-05T17:40:48.701Z,13.70
2022-09-05T17:43:34.536Z,13.70
2022-09-05T17:46:20.267Z,13.70
2022-09-05T17:49:19.004Z,13.70
2022-09-05T17:51:51.418Z,13.80
2022-09-05T17:54:26.487Z,13.70
2022-09-05T17:56:53.718Z,13.80
2022-09-05T17:59:20.602Z,13.70
2022-09-05T18:02:02.689Z,13.70
2022-09-05T18:04:47.473Z,13.70
2022-09-05T18:07:23.163Z,13.60
2022-09-05T18:10:15.130Z,13.60
2022-09-05T18:15:36.296Z,13.50
2022-09-05T18:18:08.591Z,13.50
2022-09-05T18:24:01.429Z,13.40
2022-09-05T18:26:29.519Z,13.40
2022-09-05T18:29:14.438Z,13.30
2022-09-05T18:31:43.431Z,13.40
2022-09-05T18:34:13.768Z,13.40
2022-09-05T18:36:46.008Z,13.50
2022-09-05T18:39:28.017Z,13.60
2022-09-05T18:42:33.614Z,13.50
2022-09-05T18:45:15.447Z,13.50
2022-09-05T18:47:52.856Z,13.50
2022-09-05T18:50:28.405Z,13.50
2022-09-05T18:53:10.447Z,13.40
2022-09-05T18:56:12.773Z,13.40
2022-09-05T18:59:12.771Z,13.40
2022-09-05T19:01:54.293Z,13.40
2022-09-05T19:04:41.483Z,13.40
2022-09-05T19:07:13.902Z,13.50
2022-09-05T19:09:58.180Z,13.40
2022-09-05T19:12:33.438Z,13.40
2022-09-05T19:15:31.076Z,13.50
2022-09-05T19:18:25.809Z,13.50
2022-09-05T19:20:57.149Z,13.50
2022-09-05T19:23:28.175Z,13.40
2022-09-05T19:26:09.714Z,13.30
2022-09-05T19:36:45.115Z,13.30
2022-09-05T19:36:54.257Z,13.20
2022-09-05T19:37:05.314Z,13.20
2022-09-05T19:37:30.374Z,13.20
2022-09-05T19:41:18.310Z,13.20
2022-09-05T19:47:40.834Z,13.10
2022-09-05T19:47:56.206Z,13.00
2022-09-05T19:48:35.315Z,13.00
2022-09-05T19:51:27.005Z,12.90
2022-09-05T19:54:04.557Z,12.90
2022-09-05T19:56:41.824Z,12.90
2022-09-05T19:59:20.084Z,12.90
2022-09-05T20:01:47.972Z,12.90
2022-09-05T20:04:18.951Z,12.90
2022-09-05T20:06:47.419Z,12.90
2022-09-05T20:09:18.810Z,12.90
2022-09-05T20:11:58.227Z,12.90
2022-09-05T20:14:30.621Z,13.00
2022-09-05T20:17:17.090Z,12.90
2022-09-05T20:19:45.100Z,12.90
2022-09-05T20:22:49.539Z,13.00
2022-09-05T20:25:18.881Z,12.90
2022-09-05T20:28:07.181Z,13.00
2022-09-05T20:30:42.823Z,13.00
2022-09-05T20:33:22.015Z,12.90
2022-09-05T20:41:11.637Z,12.90
2022-09-05T20:43:17.274Z,12.80
2022-09-05T20:43:27.017Z,12.90
2022-09-05T20:44:42.830Z,12.80
2022-09-05T20:52:31.559Z,12.80
2022-09-05T20:54:19.416Z,12.80
2022-09-05T20:54:20.155Z,12.80
2022-09-05T20:56:23.701Z,12.80
2022-09-05T20:58:51.513Z,12.80
2022-09-05T21:01:23.598Z,12.80
2022-09-05T21:03:59.475Z,12.80
2022-09-05T21:06:34.570Z,12.80
2022-09-05T21:09:24.309Z,12.80
2022-09-05T21:11:56.424Z,12.70
2022-09-05T21:14:26.659Z,12.70
2022-09-05T21:17:00.839Z,12.70
2022-09-05T21:19:35.711Z,12.70
2022-09-05T21:22:05.304Z,12.70
2022-09-05T21:24:32.333Z,12.70
2022-09-05T21:27:21.298Z,12.70
2022-09-05T21:29:56.586Z,12.80
2022-09-05T21:32:30.295Z,12.80
2022-09-05T21:35:34.572Z,12.80
2022-09-05T21:37:57.126Z,12.70
2022-09-05T21:40:24.165Z,12.80
2022-09-05T21:47:43.439Z,12.70
2022-09-05T21:47:44.953Z,12.80
2022-09-05T21:48:27.123Z,12.70
2022-09-05T21:50:56.909Z,12.70
2022-09-05T21:59:14.632Z,12.70
2022-09-05T21:59:17.794Z,12.70
2022-09-05T21:59:36.964Z,12.70
2022-09-05T22:01:59.533Z,12.70
2022-09-05T22:04:27.376Z,12.70
2022-09-05T22:06:57.632Z,12.80
2022-09-05T22:09:24.879Z,12.80
2022-09-05T22:11:52.608Z,12.80
2022-09-05T22:14:21.274Z,12.70
2022-09-05T22:16:51.004Z,12.70
2022-09-05T22:19:22.972Z,12.70
2022-09-05T22:21:56.855Z,12.70
2022-09-05T22:24:25.834Z,12.70
2022-09-05T22:27:11.209Z,12.70
2022-09-05T22:29:39.988Z,12.70
2022-09-05T22:32:07.799Z,12.70
2022-09-05T22:34:34.770Z,12.70
2022-09-05T22:37:01.825Z,12.70
2022-09-05T22:39:37.024Z,12.70
2022-09-05T22:42:10.005Z,12.70
2022-09-05T22:44:40.747Z,12.70
2022-09-05T22:47:09.312Z,12.70
2022-09-05T22:49:36.686Z,12.60
2022-09-05T22:52:08.049Z,12.60
2022-09-05T22:54:37.799Z,12.70
2022-09-05T22:57:05.141Z,12.60
2022-09-05T22:59:32.302Z,12.60
2022-09-05T23:01:59.289Z,12.60
2022-09-05T23:04:26.514Z,12.60
2022-09-05T23:06:53.495Z,12.60
2022-09-05T23:09:20.481Z,12.60
2022-09-05T23:11:48.254Z,12.50
2022-09-05T23:14:15.161Z,12.60
2022-09-05T23:16:42.085Z,12.50
2022-09-05T23:19:09.040Z,12.50
2022-09-05T23:21:35.941Z,12.50
2022-09-05T23:24:03.141Z,12.50
2022-09-05T23:26:30.547Z,12.40
2022-09-05T23:28:57.505Z,12.40
2022-09-05T23:31:24.465Z,12.40
2022-09-05T23:33:52.053Z,12.40
2022-09-05T23:36:19.043Z,12.40
2022-09-05T23:38:45.934Z,12.40
2022-09-05T23:41:15.012Z,12.40
2022-09-05T23:43:42.337Z,12.40
2022-09-05T23:46:09.427Z,12.40
2022-09-05T23:48:36.530Z,12.40
2022-09-05T23:51:11.896Z,12.40
2022-09-05T23:53:39.573Z,12.50
2022-09-05T23:56:08.872Z,12.50
2022-09-05T23:58:36.577Z,12.50
